createdAt,value
2023-02-08T00:03:11.865Z,19.40
2023-02-08T00:05:39.356Z,18.75
2023-02-08T00:08:06.287Z,21.02
2023-02-08T00:10:32.754Z,18.63
2023-02-08T00:12:59.338Z,21.17
2023-02-08T00:15:25.828Z,21.08
2023-02-08T00:17:52.300Z,19.42
2023-02-08T00:20:18.909Z,19.90
2023-02-08T00:22:45.402Z,19.63
2023-02-08T00:25:12.205Z,18.05
2023-02-08T00:27:38.807Z,18.48
2023-02-08T00:30:05.978Z,17.25
2023-02-08T00:32:32.555Z,22.27
2023-02-08T00:34:59.035Z,17.73
2023-02-08T00:37:25.544Z,18.92
2023-02-08T00:39:52.025Z,18.83
2023-02-08T00:42:18.541Z,20.90
2023-02-08T00:44:45.421Z,17.42
2023-02-08T00:49:56.216Z,19.67
2023-02-08T00:55:07.280Z,19.95
2023-02-08T00:57:34.511Z,20.10
2023-02-08T01:00:01.545Z,16.40
2023-02-08T01:02:28.246Z,19.25
2023-02-08T01:04:54.797Z,17.23
2023-02-08T01:07:21.262Z,19.13
2023-02-08T01:09:47.835Z,18.65
2023-02-08T01:12:14.381Z,17.83
2023-02-08T01:14:41.055Z,17.80
2023-02-08T01:17:07.908Z,17.77
2023-02-08T01:19:34.619Z,17.95
2023-02-08T01:22:03.126Z,17.25
2023-02-08T01:24:29.687Z,18.27
2023-02-08T01:26:56.937Z,17.83
2023-02-08T01:29:23.903Z,19.95
2023-02-08T01:31:50.396Z,20.55
2023-02-08T01:34:16.936Z,20.58
2023-02-08T01:36:43.546Z,18.27
2023-02-08T01:39:11.674Z,19.42
2023-02-08T01:41:43.916Z,20.58
2023-02-08T01:44:13.560Z,19.92
2023-02-08T01:46:48.740Z,19.83
2023-02-08T01:49:20.780Z,19.70
2023-02-08T01:51:52.143Z,18.00
2023-02-08T01:54:22.441Z,17.52
2023-02-08T01:56:52.137Z,17.92
2023-02-08T02:02:15.185Z,19.53
2023-02-08T02:04:41.791Z,18.25
2023-02-08T02:07:08.653Z,19.52
2023-02-08T02:09:46.844Z,23.60
2023-02-08T02:12:14.506Z,21.25
2023-02-08T02:14:42.377Z,17.53
2023-02-08T02:17:12.453Z,19.80
2023-02-08T02:20:18.829Z,20.10
2023-02-08T02:23:10.556Z,19.55
2023-02-08T02:25:45.991Z,18.85
2023-02-08T02:28:50.158Z,18.50
2023-02-08T02:31:36.787Z,19.80
2023-02-08T02:34:37.129Z,18.80
2023-02-08T02:37:20.716Z,21.45
2023-02-08T02:40:15.114Z,18.70
2023-02-08T02:43:25.432Z,19.80
2023-02-08T02:45:56.473Z,19.58
2023-02-08T02:48:27.698Z,18.23
2023-02-08T02:51:04.243Z,19.48
2023-02-08T02:53:55.621Z,18.25
2023-02-08T02:56:26.752Z,18.43
2023-02-08T02:58:56.087Z,20.05
2023-02-08T03:01:26.009Z,18.58
2023-02-08T03:06:43.795Z,20.00
2023-02-08T03:12:34.748Z,20.70
2023-02-08T03:15:26.212Z,17.23
2023-02-08T03:18:04.802Z,18.08
2023-02-08T03:20:47.312Z,19.65
2023-02-08T03:23:22.304Z,19.97
2023-02-08T03:25:51.693Z,17.17
2023-02-08T03:28:31.554Z,23.80
2023-02-08T03:33:51.224Z,20.90
2023-02-08T03:36:23.302Z,20.27
2023-02-08T03:38:51.115Z,18.52
2023-02-08T03:41:24.440Z,21.02
2023-02-08T03:43:58.450Z,20.67
2023-02-08T03:46:29.023Z,18.15
2023-02-08T03:49:02.848Z,19.37
2023-02-08T03:51:32.746Z,20.83
2023-02-08T03:54:02.495Z,18.77
2023-02-08T03:56:40.822Z,17.50
2023-02-08T03:59:12.053Z,23.08
2023-02-08T04:01:45.220Z,19.07
2023-02-08T04:04:14.018Z,21.45
2023-02-08T04:06:40.554Z,18.05
2023-02-08T04:09:07.045Z,19.35
2023-02-08T04:11:33.504Z,20.50
2023-02-08T04:13:59.936Z,22.67
2023-02-08T04:16:26.434Z,20.88
2023-02-08T04:18:52.945Z,18.92
2023-02-08T04:21:19.411Z,27.20
2023-02-08T04:23:45.881Z,19.52
2023-02-08T04:26:12.327Z,20.27
2023-02-08T04:28:38.833Z,19.77
2023-02-08T04:31:05.557Z,18.58
2023-02-08T04:33:32.214Z,17.60
2023-02-08T04:35:58.737Z,20.77
2023-02-08T04:38:25.266Z,18.20
2023-02-08T04:40:52.000Z,20.48
2023-02-08T04:43:18.467Z,22.52
2023-02-08T04:45:44.943Z,21.95
2023-02-08T04:48:12.075Z,20.50
2023-02-08T04:50:39.566Z,19.90
2023-02-08T04:53:06.731Z,21.65
2023-02-08T04:55:33.456Z,20.88
2023-02-08T04:58:00.012Z,23.60
2023-02-08T05:00:27.324Z,24.00
2023-02-08T05:02:55.231Z,20.00
2023-02-08T05:05:21.757Z,21.33
2023-02-08T05:07:48.281Z,20.15
2023-02-08T05:10:15.071Z,21.65
2023-02-08T05:12:41.651Z,22.65
2023-02-08T05:15:08.676Z,21.20
2023-02-08T05:17:35.202Z,19.02
2023-02-08T05:20:01.688Z,23.10
2023-02-08T05:22:28.249Z,19.83
2023-02-08T05:24:55.106Z,22.30
2023-02-08T05:27:21.518Z,20.43
2023-02-08T05:29:48.024Z,23.27
2023-02-08T05:32:14.575Z,22.38
2023-02-08T05:34:41.493Z,20.38
2023-02-08T05:37:08.042Z,21.80
2023-02-08T05:39:34.656Z,22.03
2023-02-08T05:42:01.144Z,29.48
2023-02-08T05:44:27.637Z,24.10
2023-02-08T05:46:54.158Z,21.33
2023-02-08T05:49:20.719Z,21.90
2023-02-08T05:51:47.277Z,21.07
2023-02-08T05:54:13.756Z,21.75
2023-02-08T05:56:40.345Z,21.25
2023-02-08T05:59:06.803Z,19.00
2023-02-08T06:01:33.409Z,25.92
2023-02-08T06:04:00.546Z,20.17
2023-02-08T06:06:27.650Z,20.70
2023-02-08T06:08:54.258Z,22.05
2023-02-08T06:11:21.258Z,22.63
2023-02-08T06:13:48.075Z,24.10
2023-02-08T06:16:15.272Z,22.87
2023-02-08T06:18:41.813Z,23.52
2023-02-08T06:21:08.406Z,22.45
2023-02-08T06:23:34.917Z,23.73
2023-02-08T06:26:02.003Z,20.08
2023-02-08T06:28:28.499Z,22.97
2023-02-08T06:30:55.073Z,23.02
2023-02-08T06:33:21.669Z,22.40
2023-02-08T06:35:51.386Z,21.77
2023-02-08T06:38:18.963Z,23.42
2023-02-08T06:40:48.662Z,23.73
2023-02-08T06:43:16.276Z,22.77
2023-02-08T06:45:45.959Z,23.58
2023-02-08T06:48:13.041Z,24.60
2023-02-08T06:50:39.992Z,25.35
2023-02-08T06:53:06.697Z,24.33
2023-02-08T06:55:33.202Z,23.55
2023-02-08T06:57:59.666Z,24.15
2023-02-08T07:00:26.190Z,21.95
2023-02-08T07:02:52.826Z,25.45
2023-02-08T07:05:19.559Z,23.20
2023-02-08T07:07:48.470Z,25.15
2023-02-08T07:10:15.959Z,26.23
2023-02-08T07:12:42.496Z,23.13
2023-02-08T07:15:10.071Z,22.90
2023-02-08T07:17:36.597Z,24.27
2023-02-08T07:20:03.565Z,26.08
2023-02-08T07:22:30.075Z,25.48
2023-02-08T07:24:56.595Z,25.77
2023-02-08T07:27:25.026Z,26.52
2023-02-08T07:29:52.561Z,24.57
2023-02-08T07:32:19.057Z,24.60
2023-02-08T07:34:46.506Z,26.20
2023-02-08T07:37:13.079Z,25.40
2023-02-08T07:39:39.846Z,25.98
2023-02-08T07:42:08.805Z,27.70
2023-02-08T07:44:45.963Z,26.52
2023-02-08T07:47:12.469Z,29.67
2023-02-08T07:49:39.677Z,27.75
2023-02-08T07:52:06.305Z,24.13
2023-02-08T07:54:32.957Z,25.97
2023-02-08T07:57:02.369Z,25.70
2023-02-08T07:59:29.737Z,26.65
2023-02-08T08:01:56.374Z,27.00
2023-02-08T08:04:23.106Z,26.27
2023-02-08T08:06:51.462Z,25.47
2023-02-08T08:09:20.251Z,26.95
2023-02-08T08:11:46.789Z,26.83
2023-02-08T08:14:13.309Z,24.95
2023-02-08T08:16:40.459Z,25.13
2023-02-08T08:19:06.879Z,25.50
2023-02-08T08:21:33.395Z,27.88
2023-02-08T08:23:59.959Z,25.90
2023-02-08T08:26:26.730Z,25.45
2023-02-08T08:28:53.325Z,24.45
2023-02-08T08:31:22.505Z,26.40
2023-02-08T08:33:49.658Z,26.83
2023-02-08T08:36:16.603Z,24.27
2023-02-08T08:38:43.226Z,24.80
2023-02-08T08:41:15.037Z,21.95
2023-02-08T08:43:41.639Z,22.63
2023-02-08T08:46:09.077Z,25.83
2023-02-08T08:48:36.273Z,23.33
2023-02-08T08:51:03.245Z,25.20
2023-02-08T08:53:29.774Z,25.45
2023-02-08T08:55:56.268Z,21.93
2023-02-08T08:58:22.811Z,20.75
2023-02-08T09:00:49.457Z,18.85
2023-02-08T09:03:16.101Z,22.83
2023-02-08T09:05:42.599Z,20.35
2023-02-08T09:08:09.116Z,20.70
2023-02-08T09:10:35.701Z,18.45
2023-02-08T09:13:02.248Z,21.10
2023-02-08T09:15:28.807Z,20.15
2023-02-08T09:17:55.435Z,18.98
2023-02-08T09:20:21.965Z,17.90
2023-02-08T09:22:48.598Z,15.65
2023-02-08T09:25:15.509Z,18.08
2023-02-08T09:27:42.067Z,18.98
2023-02-08T09:30:09.239Z,16.38
2023-02-08T09:32:36.651Z,18.43
2023-02-08T09:35:03.618Z,19.55
2023-02-08T09:37:30.172Z,19.65
2023-02-08T09:39:58.607Z,16.23
2023-02-08T09:42:47.358Z,18.73
2023-02-08T09:45:31.018Z,15.90
2023-02-08T09:48:16.461Z,15.18
2023-02-08T09:50:59.858Z,19.15
2023-02-08T09:53:35.126Z,14.57
2023-02-08T09:56:05.265Z,15.38
2023-02-08T09:58:41.665Z,14.50
2023-02-08T10:01:23.849Z,15.60
2023-02-08T10:03:53.608Z,14.02
2023-02-08T10:06:20.415Z,11.63
2023-02-08T10:08:50.685Z,14.48
2023-02-08T10:11:28.551Z,13.47
2023-02-08T10:14:09.911Z,16.35
2023-02-08T10:16:43.708Z,13.98
2023-02-08T10:19:24.090Z,13.68
2023-02-08T10:21:50.575Z,12.45
2023-02-08T10:24:34.585Z,12.20
2023-02-08T10:27:23.719Z,10.85
2023-02-08T10:30:22.415Z,11.57
2023-02-08T10:33:06.859Z,12.48
2023-02-08T10:35:37.696Z,10.38
2023-02-08T10:38:19.320Z,10.27
2023-02-08T10:40:49.039Z,12.15
2023-02-08T10:43:28.802Z,16.77
2023-02-08T10:46:12.038Z,13.68
2023-02-08T10:48:48.498Z,11.32
2023-02-08T10:51:18.607Z,11.27
2023-02-08T10:53:46.253Z,11.85
2023-02-08T10:59:32.887Z,12.35
2023-02-08T11:01:59.837Z,10.55
2023-02-08T11:04:26.384Z,10.97
2023-02-08T11:06:54.712Z,11.20
2023-02-08T11:09:31.475Z,10.32
2023-02-08T11:12:00.971Z,12.52
2023-02-08T11:14:46.086Z,10.77
2023-02-08T11:17:29.545Z,13.20
2023-02-08T11:22:45.709Z,10.02
2023-02-08T11:25:36.006Z,8.30
2023-02-08T11:28:03.508Z,10.65
2023-02-08T11:30:30.342Z,10.83
2023-02-08T11:33:18.642Z,9.93
2023-02-08T11:36:01.559Z,9.02
2023-02-08T11:38:29.205Z,10.00
2023-02-08T11:40:59.032Z,9.57
2023-02-08T11:43:31.991Z,10.27
2023-02-08T11:45:59.605Z,8.70
2023-02-08T11:48:39.416Z,11.52
2023-02-08T11:51:06.535Z,9.82
2023-02-08T11:53:37.689Z,8.48
2023-02-08T11:56:17.801Z,11.10
2023-02-08T11:58:57.797Z,12.02
2023-02-08T12:01:29.373Z,9.45
2023-02-08T12:03:59.004Z,11.40
2023-02-08T12:06:47.395Z,9.43
2023-02-08T12:09:29.066Z,9.77
2023-02-08T12:12:20.477Z,8.57
2023-02-08T12:15:10.467Z,9.35
2023-02-08T12:17:55.266Z,10.35
2023-02-08T12:20:42.762Z,11.75
2023-02-08T12:23:28.203Z,9.53
2023-02-08T12:26:13.302Z,7.90
2023-02-08T12:29:02.719Z,7.32
2023-02-08T12:31:44.169Z,6.68
2023-02-08T12:34:19.679Z,8.45
2023-02-08T12:37:26.106Z,6.83
2023-02-08T12:40:25.531Z,10.60
2023-02-08T12:43:04.329Z,10.25
2023-02-08T12:45:52.231Z,7.50
2023-02-08T12:48:30.849Z,7.15
2023-02-08T12:51:16.656Z,6.43
2023-02-08T12:53:55.258Z,7.75
2023-02-08T12:56:31.740Z,6.60
2023-02-08T12:59:11.860Z,8.48
2023-02-08T13:01:51.504Z,7.45
2023-02-08T13:04:27.314Z,7.40
2023-02-08T13:06:59.176Z,6.28
2023-02-08T13:10:12.233Z,6.78
2023-02-08T13:12:44.215Z,5.70
2023-02-08T13:15:30.079Z,5.22
2023-02-08T13:17:59.983Z,5.80
2023-02-08T13:20:38.369Z,6.93
2023-02-08T13:23:15.381Z,6.90
2023-02-08T13:25:44.269Z,5.88
2023-02-08T13:28:19.185Z,6.20
2023-02-08T13:30:52.260Z,6.10
2023-02-08T13:33:30.989Z,7.00
2023-02-08T13:35:57.975Z,7.28
2023-02-08T13:38:35.502Z,7.03
2023-02-08T13:41:17.650Z,6.25
2023-02-08T13:43:51.525Z,7.23
2023-02-08T13:46:19.672Z,6.53
2023-02-08T13:48:50.721Z,5.75
2023-02-08T13:51:32.615Z,6.60
2023-02-08T13:54:02.031Z,4.80
2023-02-08T13:56:49.773Z,7.23
2023-02-08T13:59:42.130Z,7.60
2023-02-08T14:02:11.368Z,6.90
2023-02-08T14:05:18.052Z,6.43
2023-02-08T14:10:37.756Z,6.37
2023-02-08T14:13:23.399Z,8.50
2023-02-08T14:16:23.562Z,7.47
2023-02-08T14:18:59.311Z,7.30
2023-02-08T14:21:38.857Z,6.57
2023-02-08T14:24:19.036Z,6.73
2023-02-08T14:26:46.181Z,8.00
2023-02-08T14:29:24.008Z,6.05
2023-02-08T14:31:51.349Z,8.57
2023-02-08T14:34:26.329Z,8.13
2023-02-08T14:37:01.625Z,7.37
2023-02-08T14:39:33.388Z,8.32
2023-02-08T14:42:38.636Z,6.85
2023-02-08T14:45:05.830Z,7.85
2023-02-08T14:47:33.492Z,8.40
2023-02-08T14:50:20.563Z,7.13
2023-02-08T14:53:13.218Z,12.63
2023-02-08T14:55:49.081Z,8.35
2023-02-08T14:58:25.353Z,6.53
2023-02-08T15:00:54.878Z,10.38
2023-02-08T15:03:22.127Z,10.10
2023-02-08T15:06:22.865Z,10.82
2023-02-08T15:08:52.257Z,6.50
2023-02-08T15:11:28.252Z,10.20
2023-02-08T15:14:00.851Z,10.50
2023-02-08T15:16:34.863Z,13.53
2023-02-08T15:19:03.796Z,7.63
2023-02-08T15:21:32.338Z,10.70
2023-02-08T15:24:00.453Z,7.45
2023-02-08T15:26:27.302Z,6.78
2023-02-08T15:28:54.181Z,10.30
2023-02-08T15:31:23.708Z,7.50
2023-02-08T15:33:53.191Z,8.68
2023-02-08T15:36:29.132Z,5.95
2023-02-08T15:38:58.048Z,5.85
2023-02-08T15:41:34.288Z,7.10
2023-02-08T15:44:23.574Z,7.30
2023-02-08T15:46:55.210Z,6.05
2023-02-08T15:49:31.210Z,6.40
2023-02-08T15:51:58.723Z,8.32
2023-02-08T15:54:25.585Z,8.40
2023-02-08T15:57:03.893Z,5.57
2023-02-08T15:59:32.915Z,8.50
2023-02-08T16:02:09.212Z,4.75
2023-02-08T16:04:44.407Z,6.28
2023-02-08T16:07:22.947Z,6.37
2023-02-08T16:09:49.799Z,6.85
2023-02-08T16:12:21.646Z,5.07
2023-02-08T16:14:52.676Z,6.30
2023-02-08T16:17:38.657Z,7.82
2023-02-08T16:20:40.820Z,9.77
2023-02-08T16:23:27.460Z,8.23
2023-02-08T16:25:54.293Z,6.90
2023-02-08T16:28:32.125Z,7.70
2023-02-08T16:31:01.257Z,5.55
2023-02-08T16:33:30.082Z,8.53
2023-02-08T16:36:03.058Z,11.13
2023-02-08T16:38:32.052Z,9.20
2023-02-08T16:41:12.128Z,10.10
2023-02-08T16:43:44.045Z,25.13
2023-02-08T16:46:10.886Z,44.07
2023-02-08T16:48:40.660Z,28.25
2023-02-08T16:51:13.097Z,21.27
2023-02-08T16:53:42.641Z,25.35
2023-02-08T16:56:10.917Z,15.80
2023-02-08T16:58:37.733Z,17.87
2023-02-08T17:01:04.566Z,14.35
2023-02-08T17:03:32.642Z,14.82
2023-02-08T17:06:00.977Z,11.32
2023-02-08T17:08:27.713Z,19.95
2023-02-08T17:10:58.754Z,25.30
2023-02-08T17:13:28.899Z,14.52
2023-02-08T17:15:57.333Z,15.55
2023-02-08T17:18:23.851Z,12.35
2023-02-08T17:23:41.759Z,15.83
2023-02-08T17:26:19.966Z,12.82
2023-02-08T17:28:46.738Z,16.02
2023-02-08T17:31:14.713Z,13.20
2023-02-08T17:33:41.526Z,16.83
2023-02-08T17:36:10.981Z,21.30
2023-02-08T17:38:41.359Z,15.98
2023-02-08T17:41:15.181Z,14.60
2023-02-08T17:43:41.785Z,14.35
2023-02-08T17:46:20.571Z,13.68
2023-02-08T17:48:48.438Z,16.80
2023-02-08T17:51:23.433Z,17.17
2023-02-08T17:53:50.854Z,17.50
2023-02-08T17:56:20.448Z,16.25
2023-02-08T17:58:51.305Z,15.65
2023-02-08T18:01:24.026Z,16.83
2023-02-08T18:03:51.683Z,11.93
2023-02-08T18:06:19.281Z,12.85
2023-02-08T18:08:46.403Z,12.98
2023-02-08T18:11:19.660Z,13.52
2023-02-08T18:13:50.976Z,14.17
2023-02-08T18:16:20.716Z,15.30
2023-02-08T18:18:47.282Z,11.30
2023-02-08T18:21:17.278Z,12.43
2023-02-08T18:23:44.636Z,10.48
2023-02-08T18:26:14.786Z,13.33
2023-02-08T18:28:42.064Z,10.40
2023-02-08T18:31:11.128Z,12.82
2023-02-08T18:33:38.081Z,12.93
2023-02-08T18:36:11.266Z,13.57
2023-02-08T18:38:39.337Z,14.83
2023-02-08T18:41:09.996Z,15.38
2023-02-08T18:43:37.836Z,15.10
2023-02-08T18:46:09.499Z,12.15
2023-02-08T18:48:37.305Z,12.48
2023-02-08T18:51:04.869Z,12.83
2023-02-08T18:53:34.292Z,12.07
2023-02-08T18:56:02.705Z,12.45
2023-02-08T18:58:29.253Z,10.25
2023-02-08T19:00:56.940Z,12.00
2023-02-08T19:03:23.432Z,12.33
2023-02-08T19:05:50.098Z,11.07
2023-02-08T19:08:16.565Z,10.45
2023-02-08T19:10:43.843Z,11.55
2023-02-08T19:13:10.432Z,12.95
2023-02-08T19:15:38.466Z,10.87
2023-02-08T19:18:07.006Z,10.18
2023-02-08T19:20:38.090Z,9.95
2023-02-08T19:23:05.726Z,11.43
2023-02-08T19:25:36.936Z,10.95
2023-02-08T19:28:03.752Z,12.80
2023-02-08T19:30:30.428Z,12.50
2023-02-08T19:32:57.149Z,11.07
2023-02-08T19:35:23.662Z,9.77
2023-02-08T19:37:51.681Z,10.85
2023-02-08T19:40:19.512Z,11.30
2023-02-08T19:42:46.104Z,10.65
2023-02-08T19:45:13.494Z,9.70
2023-02-08T19:47:51.020Z,11.20
2023-02-08T19:50:18.144Z,12.00
2023-02-08T19:52:44.572Z,11.40
2023-02-08T19:55:11.084Z,11.65
2023-02-08T19:57:39.942Z,15.85
2023-02-08T20:00:17.655Z,11.80
2023-02-08T20:02:49.321Z,12.50
2023-02-08T20:05:15.785Z,12.27
2023-02-08T20:07:42.311Z,12.73
2023-02-08T20:10:09.784Z,12.73
2023-02-08T20:12:36.325Z,11.48
2023-02-08T20:15:02.947Z,12.18
2023-02-08T20:17:29.421Z,11.17
2023-02-08T20:19:55.887Z,11.57
2023-02-08T20:22:22.420Z,11.02
2023-02-08T20:24:48.945Z,12.32
2023-02-08T20:27:15.492Z,13.13
2023-02-08T20:29:41.988Z,12.20
2023-02-08T20:32:09.611Z,14.82
2023-02-08T20:34:38.126Z,12.68
2023-02-08T20:37:07.984Z,13.07
2023-02-08T20:39:36.345Z,12.75
2023-02-08T20:42:03.492Z,14.40
2023-02-08T20:44:31.446Z,13.93
2023-02-08T20:46:58.058Z,11.90
2023-02-08T20:49:26.824Z,11.60
2023-02-08T20:51:54.270Z,10.23
2023-02-08T20:54:24.236Z,13.63
2023-02-08T20:56:51.699Z,12.82
2023-02-08T20:59:18.500Z,11.77
2023-02-08T21:01:46.487Z,13.02
2023-02-08T21:04:13.329Z,12.55
2023-02-08T21:06:44.026Z,12.13
2023-02-08T21:09:16.134Z,12.93
2023-02-08T21:11:43.288Z,11.38
2023-02-08T21:14:15.373Z,13.65
2023-02-08T21:16:41.937Z,11.88
2023-02-08T21:19:10.715Z,13.70
2023-02-08T21:21:37.231Z,13.02
2023-02-08T21:24:03.809Z,11.93
2023-02-08T21:26:30.419Z,12.43
2023-02-08T21:28:57.214Z,15.07
2023-02-08T21:31:24.775Z,13.53
2023-02-08T21:33:52.267Z,13.98
2023-02-08T21:36:21.791Z,13.23
2023-02-08T21:38:48.678Z,13.32
2023-02-08T21:41:33.116Z,13.52
2023-02-08T21:44:03.014Z,13.87
2023-02-08T21:46:30.929Z,13.02
2023-02-08T21:49:16.611Z,13.63
2023-02-08T21:52:02.437Z,14.50
2023-02-08T21:54:41.997Z,12.15
2023-02-08T21:57:20.361Z,14.00
2023-02-08T21:59:49.110Z,12.45
2023-02-08T22:02:25.616Z,9.73
2023-02-08T22:04:53.824Z,15.25
2023-02-08T22:07:21.128Z,12.93
2023-02-08T22:09:47.838Z,10.80
2023-02-08T22:12:15.708Z,12.75
2023-02-08T22:14:42.971Z,13.45
2023-02-08T22:17:10.205Z,9.73
2023-02-08T22:19:38.826Z,10.85
2023-02-08T22:22:05.594Z,10.47
2023-02-08T22:24:33.668Z,11.27
2023-02-08T22:27:01.067Z,16.15
2023-02-08T22:29:27.683Z,12.27
2023-02-08T22:31:54.308Z,10.93
2023-02-08T22:34:21.036Z,11.47
2023-02-08T22:36:47.530Z,12.38
2023-02-08T22:39:14.039Z,12.73
2023-02-08T22:41:40.510Z,13.00
2023-02-08T22:44:06.973Z,15.27
2023-02-08T22:46:33.429Z,13.27
2023-02-08T22:49:00.021Z,13.80
2023-02-08T22:51:26.530Z,15.32
2023-02-08T22:53:53.080Z,11.60
2023-02-08T22:56:19.587Z,13.57
2023-02-08T22:58:46.221Z,10.93
2023-02-08T23:01:14.952Z,13.38
2023-02-08T23:03:42.152Z,13.40
2023-02-08T23:06:10.743Z,13.35
2023-02-08T23:08:37.247Z,11.90
2023-02-08T23:11:05.989Z,12.83
2023-02-08T23:13:33.584Z,12.73
2023-02-08T23:16:00.222Z,12.15
2023-02-08T23:18:26.912Z,13.15
2023-02-08T23:20:54.548Z,12.57
2023-02-08T23:23:21.102Z,12.30
2023-02-08T23:25:47.737Z,15.13
2023-02-08T23:28:14.553Z,11.63
2023-02-08T23:30:42.500Z,11.50
2023-02-08T23:33:09.530Z,12.23
2023-02-08T23:35:39.853Z,13.03
2023-02-08T23:38:06.345Z,13.10
2023-02-08T23:40:32.919Z,13.18
2023-02-08T23:42:59.383Z,9.93
2023-02-08T23:45:25.878Z,11.48
2023-02-08T23:47:52.578Z,10.97
2023-02-08T23:50:19.182Z,9.77
2023-02-08T23:52:45.696Z,11.93
2023-02-08T23:55:12.213Z,11.70
2023-02-08T23:57:39.166Z,11.13
